Tiempo atmosférico en la estación meteorológica de Gran Canaria Aeropuerto, Las Palmas (24 m.)



Fecha
DESCASC
Temp. máxima en grados centígrados (hora)
DESCASC
Temp. mínima en grados centígrados (hora)
DESCASC
Temp. media en grados centígrados
DESCASC
Racha de viento máxima en m/sg (hora)
DESCASC
Velocidad máxima media en intervalos de 10 minutos(hora)
DESCASC
Precipitaciones diarias en mm
DESCASC
Precipitaciones de 00:00 a 06:00 en mm
DESCASC
Precipitaciones de 06:00 a 12:00 en mm
DESCASC
Precipitaciones de 12:00 a 18:00 en mm
DESCASC
Precipitaciones de 18:00 a 24:00 en mm
DESCASC
22-01-2020 19.6 (13:00) 12.5 (05:50) 16.1 8.89 (14:30) 4.17 (18:40) 0 0 0 0 0
21-01-2020 18.5 (13:50) 13.9 (23:40) 16.2 9.72 (11:10) 6.67 (11:10) 0 0 0 0 0
20-01-2020 21 (15:30) 14.5 (23:59) 17.8 13.89 (14:30) 8.89 (12:20) 0.6 0.6 0 0 0
19-01-2020 21.7 (15:30) 14.5 (00:00) 18.1 11.67 (16:20) 8.89 (14:20) 0 0 0 0 0
18-01-2020 20.9 (14:10) 14.8 (00:00) 17.8 8.33 (23:00) 5.28 (22:30) 0 0 0 0 0
17-01-2020 20.3 (11:30) 14.4 (00:00) 17.3 8.33 (22:10) 5.83 (22:10) 0 0 0 0 0
16-01-2020 21.1 (13:30) 12.9 (00:00) 17 6.67 (13:00) 3.89 (03:50) 0 0 0 0 0
15-01-2020 21 (13:50) 12.6 (00:00) 16.8 8.33 (13:40) 4.72 (13:40) 0 0 0 0 0
14-01-2020 21.8 (13:30) 14.3 (00:00) 18 10.28 (15:00) 7.78 (15:10) 0 0 0 0 0
13-01-2020 22.1 (13:00) 14.4 (00:00) 18.3 9.72 (13:10) 6.39 (16:10) 0 0 0 0 0
12-01-2020 20.5 (12:40) 16.4 (00:00) 18.4 13.33 (07:10) 9.17 (07:10) 0 0 0 0 0
11-01-2020 20.3 (12:50) 16.3 (00:00) 18.3 13.33 (04:10) 10.56 (04:10) 0.1 0 0 0 0.1
10-01-2020 20.8 (14:30) 16.3 (00:00) 18.5 14.44 (13:10) 10.56 (12:50) 0.7 0 0.7 0 0
09-01-2020 21.4 (14:00) 16.2 (00:00) 18.8 15.28 (15:10) 12.78 (13:10) 0 0 0 0 0
08-01-2020 20.8 (14:30) 17 (00:00) 18.9 11.39 (23:40) 8.33 (23:40) 0 0 0 0 0
07-01-2020 20.3 (13:30) 16.5 (00:00) 18.4 10.83 (01:20) 7.78 (01:20) 0 0 0 0 0
06-01-2020 21.2 (14:30) 16.1 (00:00) 18.7 13.89 (10:10) 10.83 (15:20) 0.4 0 0 0 0.4
05-01-2020 21.3 (14:50) 16.1 (00:00) 18.7 10.28 (13:50) 8.06 (15:30) 0 0 0 0 0
04-01-2020 20.1 (13:40) 14.8 (00:00) 17.5 7.78 (13:00) 4.72 (23:59) 0 0 0 0 0
03-01-2020 20 (12:50) 15.8 (00:00) 17.9 8.33 (09:40) 5.28 (04:00) 0 0 0 0 0
02-01-2020 19.5 (11:50) 14.7 (00:00) 17.1 9.17 (10:50) 5.83 (12:00) 0 0 0 0 0
01-01-2020 20 (11:40) 15.1 (00:00) 17.6 9.17 (09:30) 6.67 (12:00) 0 0 0 0 0
31-12-2019 21.2 (14:30) 15.7 (00:00) 18.5 7.22 (02:40) 5 (03:20) 0 0 0 0 0
30-12-2019 23.4 (13:30) 16.3 (00:00) 19.8 7.22 (22:00) 5 (22:10) 0 0 0 0 0
29-12-2019 22.9 (13:20) 15.8 (00:00) 19.3 5 (12:00) 3.33 (19:50) 0 0 0 0 0
28-12-2019 23.4 (13:40) 17.5 (00:00) 20.4 6.11 (13:20) 3.89 (23:50) 0 0 0 0 0
27-12-2019 24.3 (14:10) 17.3 (00:00) 20.8 5 (00:30) 4.17 (00:50) 0 0 0 0 0

Gráficas

Temp. máximas Temp. mínimas Temp. medias Precipitaciones Rachas de viento máximas Velocidades máximas media en intervalos de 10 minutos

Datos horarios

Fecha y hora oficial Temperatura (ºC) Velocidad del viento (km/h) Dirección del viento Racha (km/h) Dirección de racha Precipitación (mm) Presión (hPa) Tendencia (hPa) Humedad (%)
2020-01-25 23:00:00 16.3 12 Noroeste 21 Norte 0 1019.9 0.9 61
2020-01-25 22:00:00 17.2 15 Noroeste 28 Noroeste 0 1019.7 1.6 63
2020-01-25 21:00:00 17.3 15 Norte 24 Norte 0 1019.5 2.1 64
2020-01-25 20:00:00 18 9 Norte 22 Noroeste 0 1019 2 61
2020-01-25 19:00:00 18.2 12 Norte 26 Norte 0 1018.1 1.2 59
2020-01-25 18:00:00 18.8 18 Norte 39 Norte 0 1017.4 0.2 53
2020-01-25 17:00:00 19.1 23 Norte 41 Norte 0 1017 -0.6 52
2020-01-25 16:00:00 18.8 36 Norte 45 Norte 0 1016.9 -1.5 63
2020-01-25 15:00:00 19.4 29 Nordeste 41 Nordeste 0 1017.2 -1.6 63
2020-01-25 14:00:00 20.2 33 Nordeste 41 Nordeste 0 1017.6 -1.4 54
2020-01-25 13:00:00 20 32 Nordeste 41 Norte 0 1018.4 -0.1 54
2020-01-25 12:00:00 20.7 26 Norte 37 Nordeste 0 1018.8 0.9 50
2020-01-25 11:00:00 20.2 21 Norte 30 Norte 0 1019 1.7 48
2020-01-25 10:00:00 18.9 12 Norte 18 Norte 0 1018.5 1.9 55
2020-01-25 09:00:00 16 6 Oeste 15 Oeste 0 1017.9 1.9 59
2020-01-25 08:00:00 13.6 12 Oeste 15 Oeste 0 1017.3 1.5 64
2020-01-25 07:00:00 13.6 12 Oeste 15 Oeste 0 1016.6 0.7 62
2020-01-25 06:00:00 13.4 7 Oeste 15 Oeste 0 1016 0 59
2020-01-25 05:00:00 13.5 9 Oeste 13 Oeste 0 1015.8 -0.6 62
2020-01-25 04:00:00 14.9 9 Noroeste 17 Noroeste 0 1015.9 -0.6 55
2020-01-25 03:00:00 14.1 9 Noroeste 13 Norte 0 1016 -0.9 61
2020-01-25 02:00:00 14.1 8 Oeste 15 Oeste 0 1016.4 -0.6 57
2020-01-25 01:00:00 14.3 13 Oeste 18 Oeste 0 1016.5 -0.4 65
2020-01-25 00:00:00 14.6 12 Oeste 17 Oeste 0 1016.9 0.2 64
2020-01-24 23:00:00 14.9 9 Oeste 13 Oeste 0 1017 0.8 63
2020-01-24 22:00:00 15.2 9 Oeste 13 Oeste 0 1016.9 1.4 67
2020-01-24 21:00:00 15.8 10 Oeste 15 Oeste 0 1016.7 1.8 67
2020-01-24 20:00:00 16.2 4 Oeste 8 Oeste 0 1016.2 1.5 64
2020-01-24 19:00:00 17.1 0 Calma 11 Este 0 1015.5 1.1 61
2020-01-24 18:00:00 18 4 Sudeste 17 Sudeste 0 1014.9 0.7 60
2020-01-24 17:00:00 18.4 6 Sudeste 15 Sudeste 0 1014.7 -0.1 58
2020-01-24 16:00:00 18.8 10 Sudeste 18 Sudeste 0 1014.4 -1.4 57
2020-01-24 15:00:00 19.2 10 Este 24 Sudeste 0 1014.2 -2.3 57
2020-01-24 14:00:00 20 12 Este 22 Este 0 1014.8 -1.8 53
2020-01-24 13:00:00 19.8 12 Sudeste 22 Este 0 1015.8 -0.5 56
2020-01-24 12:00:00 19.9 12 Sudeste 24 Este 0 1016.5 0.5 50
2020-01-24 11:00:00 19.4 13 Sudeste 18 Sudeste 0 1016.6 1.4 54
2020-01-24 10:00:00 18.4 9 Sur 15 Sur 0 1016.3 1.5 52
2020-01-24 09:00:00 15.2 12 Oeste 17 Oeste 0 1016 1.6 45
2020-01-24 08:00:00 13.6 13 Oeste 17 Oeste 0 1015.2 0.6 55
2020-01-24 07:00:00 13.4 10 Oeste 17 Oeste 0 1014.8 -0.3 56
2020-01-24 06:00:00 13.7 13 Oeste 22 Oeste 0 1014.4 -0.8 59
2020-01-24 05:00:00 13.6 13 Oeste 18 Oeste 0 1014.6 -0.9 61
2020-01-24 04:00:00 13.6 12 Oeste 15 Oeste 0 1015.1 -0.3 65
2020-01-24 03:00:00 13.5 10 Oeste 13 Oeste 0 1015.2 -0.5 67
2020-01-24 02:00:00 13.7 11 Oeste 13 Oeste 0 1015.5 -0.4 67
2020-01-24 01:00:00 14.8 11 Oeste 13 Oeste 0 1015.4 -0.3 66
2020-01-24 00:00:00 14.9 11 Noroeste 13 Noroeste 0 1015.7 0.4 62
2020-01-23 23:00:00 15.1 9 Oeste 13 Oeste 0 1015.9 1.3 63
2020-01-23 22:00:00 16 9 Oeste 11 Oeste 0 1015.7 1.5 65
2020-01-23 21:00:00 16.5 8 Oeste 11 Oeste 0 1015.3 1.4 64
2020-01-23 20:00:00 17.1 6 Noroeste 9 Noroeste 0 1014.6 1 62
2020-01-23 19:00:00 17.5 0 Calma 8 Sudeste 0 1014.2 0.6 61
2020-01-23 18:00:00 17.8 4 Este 13 Este 0 1013.9 0.1 61
2020-01-23 17:00:00 18.2 8 Este 15 Este 0 1013.6 -0.4 61
2020-01-23 16:00:00 18.5 8 Este 15 Nordeste 0 1013.6 -1 60
2020-01-23 15:00:00 18.5 8 Este 18 Este 0 1013.8 -1.5 59
2020-01-23 14:00:00 18.6 10 Este 24 Este 0 1014 -1.3 60
2020-01-23 13:00:00 20 13 Este 28 Este 0 1014.6 -0.2 55
2020-01-23 12:00:00 19.4 14 Nordeste 21 Este 0 1015.3 1.3 55
2020-01-23 11:00:00 19.1 14 Nordeste 21 Nordeste 0 1015.3 1.9 50
2020-01-23 10:00:00 18.2 7 Norte 13 Nordeste 0 1014.8 2.2 48
2020-01-23 09:00:00 16.4 6 Noroeste 15 Oeste 0 1014 1.4 44
2020-01-23 08:00:00 13.5 13 Oeste 15 Oeste 0 1013.4 0.7 50
2020-01-23 07:00:00 13.4 13 Oeste 17 Oeste 0 1012.6 -0.1 52
2020-01-23 06:00:00 12.1 9 Oeste 11 Oeste 0 1012.6 -0.4 57
2020-01-23 05:00:00 12.4 8 Oeste 11 Oeste 0 1012.7 -0.8 56
2020-01-23 04:00:00 13.1 10 Oeste 17 Oeste 0 1012.7 -0.8 54
2020-01-23 03:00:00 13.4 13 Oeste 17 Oeste 0 1013 -1 52
2020-01-23 02:00:00 14.2 15 Oeste 18 Oeste 0 1013.5 -0.7 51
2020-01-23 01:00:00 13.7 12 Oeste 15 Oeste 0 1013.5 -0.5 58
2020-01-23 00:00:00 14.1 13 Oeste 15 Oeste 0 1014 0.2 58
2020-01-22 23:00:00 14.1 11 Oeste 15 Oeste 0 1014.2 1 61
2020-01-22 22:00:00 14.7 12 Oeste 15 Oeste 0 1014 1.6 63
2020-01-22 21:00:00 15.3 9 Oeste 17 Sudoeste 0 1013.8 1.8 66
2020-01-22 20:00:00 16 10 Sudoeste 15 Sudoeste 0 1013.2 1.2 66
2020-01-22 19:00:00 16.6 12 Sudoeste 21 Sudoeste 0 1012.4 0.3 59
2020-01-22 18:00:00 17.6 5 Noroeste 18 Sudeste 0 1012 -0.4 57
2020-01-22 17:00:00 18.3 7 Sudeste 18 Sur 0 1012 -0.7 50
2020-01-22 16:00:00 18.2 7 Oeste 22 Sur 0 1012.1 -1.3 51
2020-01-22 15:00:00 18.4 13 Sur 32 Sudeste 0 1012.4 -1.3 45
2020-01-22 14:00:00 18.6 13 Este 22 Este 0 1012.7 -1.3 45
2020-01-22 13:00:00 19.5 13 Sudeste 26 Sudeste 0 1013.4 -0.4 46
2020-01-22 12:00:00 18.8 14 Sudeste 21 Sudeste 0 1013.7 0.5 48
2020-01-22 11:00:00 18.7 11 Sudeste 18 Este 0 1014 1 45
2020-01-22 10:00:00 18 11 Sur 15 Sur 0 1013.8 1.3 44
2020-01-22 09:00:00 15.3 3 Oeste 15 Oeste 0 1013.2 1.2 42
2020-01-22 08:00:00 12.9 9 Oeste 13 Oeste 0 1013 1.1 44
2020-01-22 07:00:00 13 10 Oeste 13 Oeste 0 1012.5 0.4 50
2020-01-22 06:00:00 12.6 11 Oeste 13 Oeste 0 1012 -0.3 58
2020-01-22 05:00:00 13.7 9 Noroeste 13 Noroeste 0 1011.9 -0.5 57
2020-01-22 04:00:00 13.2 9 Noroeste 11 Noroeste 0 1012.1 -0.5 55
2020-01-22 03:00:00 13.3 8 Oeste 13 Noroeste 0 1012.3 -0.3 58
2020-01-22 02:00:00 13.8 10 Oeste 15 Oeste 0 1012.4 -0.2 55
2020-01-22 01:00:00 13.6 8 Oeste 11 Noroeste 0 1012.6 0.5 54
2020-01-22 00:00:00 14 7 Noroeste 17 Noroeste 0 1012.6 0.7 56
2020-01-21 23:00:00 15 9 Noroeste 15 Noroeste 0 1012.6 1.1 59
2020-01-21 22:00:00 15.4 6 Norte 13 Noroeste 0 1012.1 1.2 54
2020-01-21 21:00:00 16.1 12 Norte 22 Noroeste 0 1011.9 1.4 52
2020-01-21 20:00:00 15.8 15 Noroeste 28 Oeste 0 1011.5 1.2 58
2020-01-21 19:00:00 16.5 12 Noroeste 24 Noroeste 0 1010.9 0.9 53
2020-01-21 18:00:00 16.7 13 Noroeste 30 Noroeste 0 1010.5 0.6 55
2020-01-21 17:00:00 17.2 21 Noroeste 32 Norte 0 1010.3 0.2 53
2020-01-21 16:00:00 18 20 Noroeste 32 Noroeste 0 1010 -1.1 46
2020-01-21 15:00:00 18.2 20 Noroeste 32 Noroeste 0 1009.9 -2.1 42
2020-01-21 14:00:00 18.2 18 Noroeste 33 Noroeste 0 1010.1 -1.5 41
2020-01-21 13:00:00 17.1 12 Norte 24 Noroeste 0 1011.1 0.1 55
2020-01-21 12:00:00 16.6 17 Noroeste 35 Norte 0 1012 1.5 59
2020-01-21 11:00:00 17.8 17 Norte 33 Norte 0 1011.6 1.4 50
2020-01-21 10:00:00 17.3 16 Norte 28 Norte 0 1011 0.9 50
2020-01-21 09:00:00 16.4 14 Noroeste 22 Noroeste 0 1010.5 0.6 51
2020-01-21 08:00:00 15.7 10 Noroeste 22 Norte 0 1010.2 0.3 56
2020-01-21 07:00:00 15.7 12 Noroeste 26 Noroeste 0 1010.1 0.1 57
2020-01-21 06:00:00 15.7 13 Norte 22 Norte 0 1009.9 -0.7 60
2020-01-21 05:00:00 15.6 10 Norte 24 Noroeste 0 1009.9 -0.9 61
2020-01-21 04:00:00 15.8 13 Noroeste 24 Noroeste 0 1010 -1.1 58
2020-01-21 03:00:00 15.8 18 Noroeste 33 Noroeste 0 1010.6 -1 59
2020-01-21 02:00:00 15.7 15 Noroeste 26 Noroeste 0 1010.8 -1 62
2020-01-21 01:00:00 15.1 16 Noroeste 30 Noroeste 0 1011.1 -0.3 71
2020-01-21 00:00:00 14.6 17 Norte 33 Norte 0 1011.6 0.2 80
2020-01-20 23:00:00 15.4 22 Norte 41 Noroeste 0 1011.8 0.7 70
2020-01-20 22:00:00 16.9 16 Norte 39 Norte 0 1011.4 0.6 55
2020-01-20 21:00:00 16.8 22 Norte 35 Norte 0 1011.4 0.9 58
2020-01-20 20:00:00 17.5 19 Norte 39 Noroeste 0 1011.1 0.6 53
2020-01-20 19:00:00 17.6 22 Norte 39 Norte 0 1010.8 0.4 56
2020-01-20 18:00:00 18 21 Norte 37 Norte 0 1010.5 0.4 56
2020-01-20 17:00:00 18.4 22 Norte 45 Norte 0 1010.5 -0.4 54
2020-01-20 16:00:00 19.5 30 Norte 46 Norte 0 1010.4 -1.5 52
2020-01-20 15:00:00 20.2 26 Norte 50 Noroeste 0 1010.1 -2.8 49
2020-01-20 14:00:00 20.3 28 Norte 46 Norte 0 1010.9 -2.9 50
2020-01-20 13:00:00 19.3 28 Noroeste 48 Noroeste 0 1011.9 -1.9 52
2020-01-20 12:00:00 18.8 29 Norte 42 Norte 0 1012.9 -0.9 57
2020-01-20 11:00:00 17.5 24 Norte 39 Noroeste 0 1013.8 0 60
2020-01-20 10:00:00 16.9 21 Norte 33 Norte -- 1013.8 0.2 63
2020-01-20 09:00:00 16.6 18 Norte 45 Noroeste 0 1013.8 0.9 59
2020-01-20 08:00:00 16.6 23 Noroeste 35 Noroeste 0 1013.8 0.8 58
2020-01-20 07:00:00 16.6 17 Norte 37 Noroeste 0 1013.6 0.5 61
2020-01-20 06:00:00 16.7 28 Norte 42 Norte 0 1012.9 -0.3 59
2020-01-20 05:00:00 16.8 19 Norte 45 Norte 0 1013 -0.9 65
2020-01-20 04:00:00 16.8 21 Norte 39 Norte 0 1013.1 -2 69
2020-01-20 03:00:00 16.8 23 Norte 39 Norte 0 1013.2 -3.1 74
2020-01-20 02:00:00 17.5 29 Norte 45 Norte 0 1013.9 -3.2 76
2020-01-20 01:00:00 16.7 23 Norte 41 Norte 0.6 1015.1 -2.4 90
2020-01-20 00:00:00 17.4 26 Norte 39 Norte 0 1016.3 -1.5 83
2020-01-19 23:00:00 18.2 18 Norte 32 Noroeste 0 1017.1 -0.9 68
2020-01-19 22:00:00 17.3 17 Norte 32 Norte 0 1017.5 0.1 76
2020-01-19 21:00:00 17.8 18 Norte 32 Norte 0 1017.8 0.5 77
2020-01-19 20:00:00 18 17 Norte 30 Norte 0 1018 0.3 77
2020-01-19 19:00:00 18.1 21 Norte 33 Norte 0 1017.4 -0.4 74
2020-01-19 18:00:00 18.5 24 Norte 39 Norte 0 1017.3 -1 70
2020-01-19 17:00:00 19.6 27 Norte 42 Norte 0 1017.7 -1.3 62
2020-01-19 16:00:00 21.4 27 Norte 41 Nordeste 0 1017.8 -2.3 43
2020-01-19 15:00:00 21 30 Norte 39 Norte 0 1018.3 -2.9 61
2020-01-19 14:00:00 21 26 Nordeste 33 Norte 0 1019 -3 58
2020-01-19 13:00:00 20.7 22 Nordeste 32 Nordeste 0 1020.1 -1.8 60
2020-01-19 12:00:00 20.8 21 Nordeste 32 Nordeste 0 1021.2 -0.8 55
2020-01-19 11:00:00 20.4 20 Norte 32 Norte 0 1022 0.4 53
2020-01-19 10:00:00 20.2 13 Norte 26 Norte 0 1021.9 0.7 41
2020-01-19 09:00:00 17.5 15 Norte 22 Noroeste 0 1022 1.2 42
2020-01-19 08:00:00 14.8 10 Norte 15 Norte 0 1021.6 0.8 29
2020-01-19 07:00:00 17.6 12 Noroeste 18 Norte 0 1021.2 0 25
2020-01-19 06:00:00 17.3 10 Norte 21 Noroeste 0 1020.8 -0.9 29
2020-01-19 05:00:00 17.4 14 Noroeste 22 Noroeste 0 1020.8 -1.6 30
2020-01-19 04:00:00 17.3 13 Norte 21 Norte 0 1021.2 -1.7 33
2020-01-19 03:00:00 17.3 14 Noroeste 21 Norte 0 1021.7 -1.6 35
2020-01-19 02:00:00 17.3 12 Noroeste 18 Noroeste 0 1022.4 -0.8 34
2020-01-19 01:00:00 17.7 11 Norte 22 Norte 0 1022.9 -0.2 37
2020-01-19 00:00:00 17.8 13 Norte 26 Noroeste 0 1023.3 0.4 36
2020-01-18 23:00:00 17.9 18 Norte 30 Norte 0 1023.2 0.5 44
2020-01-18 22:00:00 18.1 18 Norte 24 Norte 0 1023.1 0.7 28
2020-01-18 21:00:00 18.4 15 Norte 24 Norte 0 1022.9 0.5 25
2020-01-18 20:00:00 17.7 12 Norte 22 Norte 0 1022.7 0.2 44
2020-01-18 19:00:00 18.2 12 Norte 21 Norte 0 1022.4 -0.4 51
2020-01-18 18:00:00 19.2 17 Nordeste 22 Nordeste 0 1022.4 -0.7 50
2020-01-18 17:00:00 19.9 14 Nordeste 21 Nordeste 0 1022.5 -1.1 48
2020-01-18 16:00:00 20.2 12 Este 22 Este 0 1022.8 -2 46
2020-01-18 15:00:00 20.5 12 Este 22 Este 0 1023.1 -2.6 47
2020-01-18 14:00:00 20.6 9 Este 17 Nordeste 0 1023.6 -2.8 51
2020-01-18 13:00:00 20.2 7 Este 18 Este 0 1024.8 -1.4 58
2020-01-18 12:00:00 19.9 9 Este 17 Este 0 1025.7 0.4 58
2020-01-18 11:00:00 19.9 6 Nordeste 18 Este 0 1026.4 1.6 56
2020-01-18 10:00:00 20 5 Nordeste 13 Norte 0 1026.2 2.1 41
2020-01-18 09:00:00 18.4 2 Noroeste 17 Norte 0 1025.3 1.8 43
2020-01-18 08:00:00 16.2 11 Noroeste 17 Noroeste 0 1024.8 1.3 43
2020-01-18 07:00:00 16.7 8 Noroeste 21 Noroeste 0 1024.1 0.4 51
2020-01-18 06:00:00 15.3 8 Noroeste 13 Noroeste 0 1023.5 -0.3 40
2020-01-18 05:00:00 15.7 9 Noroeste 17 Noroeste 0 1023.5 -0.4 36
2020-01-18 04:00:00 16.1 10 Noroeste 17 Noroeste 0 1023.7 -0.5 40
2020-01-18 03:00:00 16 11 Norte 21 Noroeste 0 1023.8 -0.7 39
2020-01-18 02:00:00 16.2 15 Noroeste 22 Norte 0 1023.9 -0.5 52
2020-01-18 01:00:00 16.2 16 Norte 24 Norte 0 1024.2 0.3 66
2020-01-18 00:00:00 17.1 19 Norte 28 Norte 0 1024.5 1 52
2020-01-17 23:00:00 17.5 19 Noroeste 30 Norte 0 1024.4 1.1 47
2020-01-17 22:00:00 16.6 14 Norte 24 Noroeste 0 1023.9 0.8 39
2020-01-17 21:00:00 16.7 11 Norte 21 Norte 0 1023.5 0.8 41
2020-01-17 20:00:00 16.9 12 Norte 15 Noroeste 0 1023.3 0.6 40
2020-01-17 19:00:00 17.5 8 Norte 13 Este 0 1023.1 0.2 60
2020-01-17 18:00:00 18.6 8 Nordeste 17 Este 0 1022.7 -0.4 56
2020-01-17 17:00:00 19.1 7 Nordeste 18 Nordeste 0 1022.7 -1 55
2020-01-17 16:00:00 19.8 11 Este 18 Este 0 1022.9 -1.8 52
2020-01-17 15:00:00 20 10 Este 26 Este 0 1023.1 -2.5 52
2020-01-17 14:00:00 20 12 Nordeste 18 Este 0 1023.7 -1.9 51
2020-01-17 13:00:00 20 9 Este 21 Nordeste 0 1024.7 -0.6 53
2020-01-17 12:00:00 19.8 13 Este 22 Este 0 1025.6 0.8 50
2020-01-17 11:00:00 19.3 8 Norte 21 Nordeste 0 1025.6 1.3 42
2020-01-17 10:00:00 18.9 6 Norte 11 Norte 0 1025.3 1.8 44
2020-01-17 09:00:00 16.5 8 Oeste 11 Oeste 0 1024.8 1.9 53
2020-01-17 08:00:00 14.7 9 Oeste 15 Noroeste 0 1024.3 1.6 54
2020-01-17 07:00:00 14.5 12 Noroeste 15 Noroeste 0 1023.5 0.7 62
2020-01-17 06:00:00 14.5 11 Noroeste 17 Noroeste 0 1022.9 0.2 61
2020-01-17 05:00:00 15.6 13 Noroeste 21 Norte 0 1022.7 0.1 55
2020-01-17 04:00:00 15.4 12 Norte 21 Norte 0 1022.8 -0.2 43
2020-01-17 03:00:00 16.1 13 Norte 26 Norte 0 1022.7 -0.5 36
2020-01-17 02:00:00 16.6 15 Noroeste 24 Noroeste 0 1022.6 -0.6 34
2020-01-17 01:00:00 15.7 13 Norte 18 Norte 0 1023 0 34
2020-01-17 00:00:00 16 13 Noroeste 17 Noroeste 0 1023.2 0.4 33
2020-01-16 23:00:00 14.8 8 Noroeste 13 Noroeste 0 1023.2 1 37
2020-01-16 22:00:00 15.6 10 Noroeste 13 Noroeste 0 1023 1.4 45
2020-01-16 21:00:00 15.7 5 Noroeste 9 Noroeste 0 1022.8 1.4 55
2020-01-16 20:00:00 16.6 6 Noroeste 8 Noroeste 0 1022.2 1.1 55
2020-01-16 19:00:00 17.8 5 Norte 11 Nordeste 0 1021.6 0.8 52
2020-01-16 18:00:00 18.9 8 Nordeste 17 Nordeste 0 1021.4 0.8 49
2020-01-16 17:00:00 19.4 8 Este 15 Este 0 1021.1 0.1 47
2020-01-16 16:00:00 19.9 10 Este 21 Este 0 1020.8 -0.8 48
2020-01-16 15:00:00 20.6 13 Sudeste 24 Sudeste 0 1020.6 -1.7 41
2020-01-16 14:00:00 20.6 14 Sudeste 24 Este 0 1021 -1.4 50
2020-01-16 13:00:00 20.5 13 Sudeste 24 Sudeste 0 1021.6 -0.5 51
2020-01-16 12:00:00 20.1 9 Este 17 Nordeste 0 1022.3 1.1 53
2020-01-16 11:00:00 19.6 6 Este 11 Este 0 1022.4 2.2 57
2020-01-16 10:00:00 19.2 0 Calma 8 Oeste 0 1022.1 2.3 59
2020-01-16 09:00:00 16.4 8 Oeste 13 Oeste 0 1021.2 1.9 63
2020-01-16 08:00:00 14.4 10 Oeste 15 Oeste 0 1020.2 1.3 58
2020-01-16 07:00:00 13.3 8 Oeste 13 Oeste 0 1019.8 1.3 51
2020-01-16 06:00:00 13.9 10 Oeste 13 Oeste 0 1019.3 0.3 43
2020-01-16 05:00:00 13.9 8 Oeste 17 Oeste 0 1018.9 -0.2 45
2020-01-16 04:00:00 13.9 13 Oeste 17 Oeste 0 1018.5 -0.7 66
2020-01-16 03:00:00 13.2 10 Oeste 11 Oeste 0 1019 -0.2 68
2020-01-16 02:00:00 13 8 Oeste 9 Oeste 0 1019.1 -0.1 63
2020-01-16 01:00:00 13.9 5 Oeste 8 Oeste 0 1019.2 0.3 48
2020-01-16 00:00:00 14.9 0 Calma 17 Oeste 0 1019.2 0.3 29
2020-01-15 23:00:00 15.3 11 Oeste 15 Oeste 0 1019.2 0.8 29
2020-01-15 22:00:00 15.2 10 Oeste 11 Oeste 0 1018.9 1.1 39
2020-01-15 21:00:00 15.5 8 Oeste 9 Oeste 0 1018.9 1.3 51
2020-01-15 20:00:00 15.9 4 Oeste 5 Oeste 0 1018.4 1.1 46
2020-01-15 19:00:00 17.3 0 Calma 8 Este 0 1017.8 0.6 52
2020-01-15 18:00:00 18.8 5 Sudeste 15 Sudeste 0 1017.6 0.4 47
2020-01-15 17:00:00 19.4 8 Sudeste 26 Sudeste 0 1017.3 0.1 47
2020-01-15 16:00:00 20 14 Sudeste 26 Este 0 1017.2 -0.6 50
2020-01-15 15:00:00 20.4 15 Sudeste 24 Sudeste 0 1017.2 -1.8 47
2020-01-15 14:00:00 20.9 17 Sudeste 30 Sudeste 0 1017.2 -2.1 42
2020-01-15 13:00:00 20.7 15 Sudeste 24 Sudeste 0 1017.8 -0.9 45
2020-01-15 12:00:00 20.3 13 Sudeste 28 Sudeste 0 1019 0.9 51
2020-01-15 11:00:00 20 10 Sudeste 22 Sudeste 0 1019.3 1.3 51
2020-01-15 10:00:00 19.5 3 Sudeste 9 Oeste 0 1018.7 1.4 51
2020-01-15 09:00:00 15.9 9 Oeste 17 Oeste 0 1018.1 1.7 51
2020-01-15 08:00:00 14.3 15 Oeste 18 Oeste 0 1018 1.9 66
2020-01-15 07:00:00 14.2 16 Oeste 21 Oeste 0 1017.3 0.8 59
2020-01-15 06:00:00 14.3 11 Oeste 15 Oeste 0 1016.4 -0.3 51
2020-01-15 05:00:00 14.2 11 Oeste 15 Oeste 0 1016.1 -0.7 46
2020-01-15 04:00:00 14.7 10 Oeste 13 Oeste 0 1016.5 -0.6 36
2020-01-15 03:00:00 15.1 9 Sudoeste 15 Oeste 0 1016.7 -0.5 39
2020-01-15 02:00:00 13 0 Calma 8 Oeste 0 1016.8 -0.2 37
2020-01-15 01:00:00 13.8 6 Oeste 15 Oeste 0 1017.1 0.6 33
2020-01-15 00:00:00 14.6 7 Oeste 9 Oeste 0 1017.2 0.9 32
2020-01-14 23:00:00 15 8 Sudoeste 11 Oeste 0 1017 1.2 33
2020-01-14 22:00:00 15.3 9 Sudoeste 11 Sur 0 1016.5 0.6 42
2020-01-14 21:00:00 15.6 6 Sudoeste 9 Oeste 0 1016.3 0.6 48
2020-01-14 20:00:00 16.7 8 Sudoeste 15 Sudoeste 0 1015.8 0.1 51
2020-01-14 19:00:00 17.1 11 Sur 22 Sur 0 1015.9 0.7 50
2020-01-14 18:00:00 18.5 18 Sur 30 Sur 0 1015.7 0.3 49
2020-01-14 17:00:00 19.6 24 Sur 32 Sur 0 1015.7 0.1 43
2020-01-14 16:00:00 20.5 21 Sur 37 Sur 0 1015.2 -1.3 39
2020-01-14 15:00:00 20.8 24 Sur 37 Sudeste 0 1015.4 -2.1 38
2020-01-14 14:00:00 21.3 24 Sur 35 Sudeste 0 1015.6 -2.2 44
2020-01-14 13:00:00 21.3 21 Sur 32 Sur 0 1016.5 -1 34
2020-01-14 12:00:00 20.9 20 Sur 30 Sur 0 1017.5 0.6 37
2020-01-14 11:00:00 20.2 21 Sur 32 Sur 0 1017.8 1.3 41
2020-01-14 10:00:00 19.5 14 Sur 24 Sur 0 1017.5 1.7 44
2020-01-14 09:00:00 17.6 11 Sudoeste 17 Sudoeste 0 1016.9 1.9 52
2020-01-14 08:00:00 16 12 Sudoeste 17 Sudoeste 0 1016.5 1.5 64
2020-01-14 07:00:00 15.3 10 Sudoeste 17 Oeste 0 1015.8 0.5 67
2020-01-14 06:00:00 15 10 Oeste 13 Oeste 0 1015 -0.7 68
2020-01-14 05:00:00 15.2 9 Oeste 13 Oeste 0 1015 -1.1 67
2020-01-14 04:00:00 15.4 11 Oeste 15 Oeste 0 1015.3 -1.2 57
2020-01-14 03:00:00 15.1 12 Oeste 17 Oeste 0 1015.7 -1.1 71
2020-01-14 02:00:00 15.1 11 Oeste 15 Oeste 0 1016.1 -1 70
2020-01-14 01:00:00 15 6 Sudoeste 13 Sudeste 0 1016.5 -0.7 68
2020-01-14 00:00:00 15.1 4 Sur 13 Sudoeste 0 1016.8 -0.3 32
2020-01-13 23:00:00 15.3 8 Sur 13 Sudeste 0 1017.1 0.3 31
2020-01-13 22:00:00 17.8 9 Sudoeste 11 Sudoeste 0 1017.2 0.7 26
2020-01-13 21:00:00 17 8 Sudoeste 11 Sudoeste 0 1017.1 0.8 30
2020-01-13 20:00:00 18.7 11 Sudoeste 18 Sudoeste 0 1016.8 0.7 28
2020-01-13 19:00:00 18.9 13 Sudoeste 22 Sudoeste 0 1016.5 0.3 34
2020-01-13 18:00:00 19.6 14 Sur 28 Sur 0 1016.3 -0.3 41
2020-01-13 17:00:00 20.3 20 Sur 35 Sur 0 1016.1 -1 42
2020-01-13 16:00:00 20.5 22 Sur 33 Sur 0 1016.2 -1.6 45
2020-01-13 15:00:00 21 21 Sur 30 Sudeste 0 1016.6 -2.5 47
2020-01-13 14:00:00 21.3 18 Sur 35 Sudeste 0 1017.1 -2.4 49
2020-01-13 13:00:00 21.5 18 Sur 33 Sur 0 1017.8 -1.2 44
2020-01-13 12:00:00 20.5 17 Sudeste 26 Sudeste 0 1019.1 0.3 61
2020-01-13 11:00:00 19.8 7 Sudeste 13 Sur 0 1019.5 1 58
2020-01-13 10:00:00 18.9 3 Este 9 Este 0 1019 1 60
2020-01-13 09:00:00 16.9 7 Noroeste 13 Noroeste 0 1018.8 1.3 68
2020-01-13 08:00:00 15.5 11 Noroeste 13 Noroeste 0 1018.5 1.4 73
2020-01-13 07:00:00 15.7 10 Noroeste 13 Noroeste 0 1018 0.1 71
2020-01-13 06:00:00 16.5 8 Noroeste 18 Noroeste 0 1017.5 -0.6 68
2020-01-13 05:00:00 15.9 14 Noroeste 18 Norte 0 1017.1 -1.2 66
2020-01-13 04:00:00 15.9 12 Noroeste 21 Norte 0 1017.9 -0.5 66
2020-01-13 03:00:00 16.1 16 Noroeste 22 Noroeste 0 1018.1 -0.7 67
2020-01-13 02:00:00 16.3 14 Noroeste 24 Noroeste 0 1018.3 -1 64
2020-01-13 01:00:00 16.5 16 Norte 26 Norte 0 1018.4 -0.9 62
2020-01-13 00:00:00 16.4 14 Norte 21 Norte 0 1018.8 -0.3 61
2020-01-12 23:00:00 16.7 15 Noroeste 22 Noroeste 0 1019.3 -0.1 59
2020-01-12 22:00:00 16.7 14 Noroeste 22 Noroeste 0 1019.3 -0.1 50
2020-01-12 21:00:00 16.9 14 Noroeste 18 Noroeste 0 1019.1 0 44
2020-01-12 20:00:00 16.6 11 Noroeste 17 Nordeste 0 1019.4 0.8 55
2020-01-12 19:00:00 17.6 12 Nordeste 18 Nordeste 0 1019.4 1.3 58
2020-01-12 18:00:00 18.4 12 Nordeste 22 Nordeste 0 1019.1 1 53
2020-01-12 17:00:00 19.3 15 Este 26 Este 0 1018.6 0 48
2020-01-12 16:00:00 19.6 14 Este 24 Este 0 1018.1 -1.7 53
2020-01-12 15:00:00 19.8 14 Nordeste 28 Nordeste 0 1018.1 -2.8 50
2020-01-12 14:00:00 19.7 17 Nordeste 26 Nordeste 0 1018.6 -2.8 55
2020-01-12 13:00:00 20.2 23 Nordeste 33 Nordeste 0 1019.8 -1.5 53
2020-01-12 12:00:00 19 25 Nordeste 33 Norte 0 1020.9 0.6 58
2020-01-12 11:00:00 19.6 28 Norte 39 Nordeste 0 1021.4 1.9 51
2020-01-12 10:00:00 18.5 26 Norte 32 Norte 0 1021.3 2.6 54
2020-01-12 09:00:00 17.8 15 Norte 28 Norte 0 1020.3 1.9 55
2020-01-12 08:00:00 17.5 15 Norte 48 Norte 0 1019.5 0.4 55
2020-01-12 07:00:00 17.3 32 Norte 45 Norte 0 1018.7 -0.8 56
2020-01-12 06:00:00 17.1 30 Norte 41 Norte 0 1018.4 -1.2 65
2020-01-12 05:00:00 17 13 Norte 24 Norte 0 1019.1 -0.8 67
2020-01-12 04:00:00 17.2 14 Norte 26 Norte 0 1019.5 -0.4 65
2020-01-12 03:00:00 16.9 14 Norte 39 Norte 0 1019.6 -0.9 69
2020-01-12 02:00:00 17.2 17 Norte 33 Norte 0 1019.9 -0.7 67
2020-01-12 01:00:00 16.5 15 Norte 30 Norte 0 1019.9 -0.3 74
2020-01-12 00:00:00 17.2 14 Norte 28 Norte 0 1020.5 0.5 66
2020-01-11 23:00:00 16.4 17 Norte 28 Norte 0.1 1020.6 0.8 77
2020-01-11 22:00:00 17.3 22 Noroeste 32 Norte 0 1020.2 0.7 63
2020-01-11 21:00:00 17.2 19 Norte 32 Noroeste 0 1020 1 66
2020-01-11 20:00:00 17.4 25 Norte 39 Norte 0 1019.8 0.7 62
2020-01-11 19:00:00 17.8 23 Norte 37 Norte 0 1019.5 0.4 60
2020-01-11 18:00:00 17.8 24 Norte 39 Norte 0 1019 -0.2 63
2020-01-11 17:00:00 17.1 19 Norte 33 Norte 0 1019.1 -0.5 75
2020-01-11 16:00:00 18.7 25 Norte 46 Norte 0 1019.1 -1.4 61
2020-01-11 15:00:00 19.4 29 Norte 45 Nordeste 0 1019.2 -2.2 58
2020-01-11 14:00:00 19.7 34 Norte 46 Norte 0 1019.6 -2.3 58
2020-01-11 13:00:00 19.5 26 Norte 41 Norte 0 1020.5 -1.2 60
2020-01-11 12:00:00 19.6 25 Norte 46 Norte 0 1021.4 0.4 53
2020-01-11 11:00:00 19.2 27 Norte 39 Norte 0 1021.9 1.3 56
2020-01-11 10:00:00 18.5 20 Norte 32 Norte 0 1021.7 1.2 55
2020-01-11 09:00:00 17.7 19 Norte 35 Noroeste 0 1021 0.7 60
2020-01-11 08:00:00 17.2 21 Norte 33 Noroeste 0 1020.6 0.2 61
2020-01-11 07:00:00 17.4 21 Norte 42 Norte 0 1020.5 -0.2 60
2020-01-11 06:00:00 17.5 28 Norte 46 Norte 0 1020.3 -0.7 58
2020-01-11 05:00:00 17.3 25 Norte 48 Norte 0 1020.4 -0.8 61
2020-01-11 04:00:00 17.7 22 Norte 35 Norte 0 1020.7 -0.9 68
2020-01-11 03:00:00 17.4 22 Norte 37 Norte 0 1021 -1 74
2020-01-11 02:00:00 17.6 19 Norte 37 Norte 0 1021.2 -1.1 75
2020-01-11 01:00:00 17.5 23 Norte 35 Norte 0 1021.6 -0.8 79
2020-01-11 00:00:00 16.4 19 Norte 48 Norte 0 1022 0 83
2020-01-10 23:00:00 18.2 18 Norte 39 Norte 0 1022.3 0.5 70
2020-01-10 22:00:00 18.4 20 Norte 35 Norte 0 1022.4 0.7 67
2020-01-10 21:00:00 18.1 18 Norte 33 Norte 0 1022 0.5 66
2020-01-10 20:00:00 19 18 Norte 30 Norte 0 1021.8 0.5 56
2020-01-10 19:00:00 19 20 Norte 37 Norte 0 1021.7 0.5 61
2020-01-10 18:00:00 19 26 Norte 41 Norte 0 1021.5 0.1 66
2020-01-10 17:00:00 19.6 29 Norte 46 Norte 0 1021.3 -0.4 63
2020-01-10 16:00:00 19.8 31 Norte 48 Norte 0 1021.2 -1 60
2020-01-10 15:00:00 20 34 Norte 50 Norte 0 1021.4 -1.6 60
2020-01-10 14:00:00 19.7 37 Norte 52 Norte 0 1021.7 -1.9 62
2020-01-10 13:00:00 20.4 33 Norte 48 Norte 0 1022.2 -1.1 62
2020-01-10 12:00:00 19.3 31 Norte 46 Norte 0 1023 0.4 69
2020-01-10 11:00:00 17.6 25 Norte 48 Norte 0.2 1023.6 1.5 83
2020-01-10 10:00:00 18 21 Norte 41 Norte 0.5 1023.3 1.3 81
2020-01-10 09:00:00 18.1 20 Norte 41 Norte 0 1022.6 0.9 75
2020-01-10 08:00:00 17.2 24 Norte 45 Norte 0 1022.1 0.3 77
2020-01-10 07:00:00 17.7 24 Norte 41 Norte 0 1022 -0.3 72
2020-01-10 06:00:00 17.7 19 Norte 33 Norte 0 1021.7 -0.7 76
2020-01-10 05:00:00 17.8 19 Norte 37 Norte 0 1021.8 -0.7 73
2020-01-10 04:00:00 18 21 Norte 32 Norte 0 1022.3 -0.6 68
2020-01-10 03:00:00 17.6 18 Norte 32 Norte 0 1022.4 -0.9 68
2020-01-10 02:00:00 17.8 19 Norte 33 Norte 0 1022.5 -1.1 62
2020-01-10 01:00:00 17.9 21 Norte 35 Norte 0 1022.9 -0.7 62
2020-01-10 00:00:00 17.9 19 Norte 39 Norte 0 1023.3 0 58
2020-01-09 23:00:00 18.1 25 Norte 45 Norte 0 1023.6 0.5 58
2020-01-09 22:00:00 18.2 31 Norte 48 Norte 0 1023.6 1.1 57
2020-01-09 21:00:00 18.3 24 Norte 50 Norte 0 1023.3 1.3 54
2020-01-09 20:00:00 18.3 30 Norte 52 Norte 0 1023.1 1.2 64
2020-01-09 19:00:00 18.3 28 Norte 46 Norte 0 1022.5 0.8 61
2020-01-09 18:00:00 18.7 29 Norte 42 Norte 0 1022 0.2 61
2020-01-09 17:00:00 19.2 30 Norte 52 Norte 0 1021.9 -0.3 56
2020-01-09 16:00:00 19.9 32 Norte 55 Norte 0 1021.7 -1.3 54
2020-01-09 15:00:00 20.2 34 Norte 52 Norte 0 1021.8 -1.8 49
2020-01-09 14:00:00 21 38 Norte 54 Norte 0 1022.2 -1.6 49
2020-01-09 13:00:00 20.6 30 Norte 50 Norte 0 1023 -0.4 48
2020-01-09 12:00:00 20.6 34 Norte 52 Norte 0 1023.6 0.9 48
2020-01-09 11:00:00 20 31 Norte 42 Norte 0 1023.8 1.6 54
2020-01-09 10:00:00 19.3 24 Norte 39 Norte 0 1023.4 1.7 54
2020-01-09 09:00:00 18.6 24 Norte 39 Norte 0 1022.7 1.1 58
2020-01-09 08:00:00 16.8 15 Norte 26 Norte 0 1022.2 0.6 67
2020-01-09 07:00:00 16.8 16 Norte 28 Norte 0 1021.7 -0.1 68
2020-01-09 06:00:00 16.7 19 Norte 30 Norte 0 1021.6 -0.5 70
2020-01-09 05:00:00 17.3 23 Norte 37 Norte 0 1021.6 -0.8 66
2020-01-09 04:00:00 16.9 17 Norte 28 Norte 0 1021.8 -0.9 65
2020-01-09 03:00:00 16.3 13 Norte 21 Noroeste 0 1022.1 -0.5 67
2020-01-09 02:00:00 16.8 12 Norte 26 Norte 0 1022.4 -0.5 65
2020-01-09 01:00:00 17.5 16 Norte 33 Norte 0 1022.7 -0.2 63
2020-01-09 00:00:00 17.7 19 Norte 41 Norte 0 1022.6 -0.2 62
2020-01-08 23:00:00 17.1 15 Norte 26 Norte 0 1022.9 0.5 65
2020-01-08 22:00:00 17.8 18 Norte 33 Norte 0 1022.9 0.9 62
2020-01-08 21:00:00 17.9 22 Norte 37 Norte 0 1022.8 1.1 59
2020-01-08 20:00:00 18 28 Norte 37 Norte 0 1022.4 0.9 62
2020-01-08 19:00:00 18.1 25 Norte 39 Norte 0 1022 0.8 62
2020-01-08 18:00:00 18.7 26 Norte 37 Norte 0 1021.7 0.6 63
2020-01-08 17:00:00 19.3 24 Norte 35 Norte 0 1021.5 -0.1 58
2020-01-08 16:00:00 19.5 26 Norte 35 Nordeste 0 1021.2 -1.2 59
2020-01-08 15:00:00 20.1 26 Nordeste 35 Nordeste 0 1021.1 -2.2 58
2020-01-08 14:00:00 20.4 22 Norte 37 Nordeste 0 1021.6 -2.1 54
2020-01-08 13:00:00 20.4 23 Nordeste 37 Nordeste 0 1022.4 -0.8 59
2020-01-08 12:00:00 20.2 25 Nordeste 32 Nordeste 0 1023.3 0.8 60
2020-01-08 11:00:00 19.6 22 Nordeste 32 Nordeste 0 1023.7 1.8 61
2020-01-08 10:00:00 19.1 24 Nordeste 32 Norte 0 1023.2 2 59
2020-01-08 09:00:00 17.6 23 Nordeste 32 Nordeste 0 1022.5 1.6 63
2020-01-08 08:00:00 17.1 22 Nordeste 32 Norte 0 1021.9 1 67
2020-01-08 07:00:00 17.3 21 Norte 32 Norte 0 1021.2 -0.2 64
2020-01-08 06:00:00 17.3 17 Norte 35 Norte 0 1020.9 -0.5 65
2020-01-08 05:00:00 17.2 27 Norte 39 Norte 0 1020.9 -0.5 64
2020-01-08 04:00:00 17.4 19 Norte 33 Nordeste 0 1021.4 -0.1 64
2020-01-08 03:00:00 17.3 24 Norte 33 Nordeste 0 1021.4 -0.5 66
2020-01-08 02:00:00 17.3 20 Norte 30 Norte 0 1021.4 -0.6 69
2020-01-08 01:00:00 17.2 13 Norte 28 Norte 0 1021.5 -0.4 68
2020-01-08 00:00:00 17.6 16 Norte 32 Norte 0 1021.9 0.4 65
2020-01-07 23:00:00 17.8 20 Norte 37 Norte 0 1022 0.8 67
2020-01-07 22:00:00 18 23 Norte 37 Norte 0 1021.9 1.2 68
2020-01-07 21:00:00 18.2 23 Norte 37 Norte 0 1021.5 1 70
2020-01-07 20:00:00 18.3 23 Norte 32 Nordeste 0 1021.2 0.9 71
2020-01-07 19:00:00 18.5 23 Norte 32 Nordeste 0 1020.7 0.3 68
2020-01-07 18:00:00 18.9 21 Norte 30 Norte 0 1020.5 0 63
2020-01-07 17:00:00 19.5 19 Norte 32 Norte 0 1020.3 -0.5 57
2020-01-07 16:00:00 20 19 Norte 32 Norte 0 1020.4 -1.1 55
2020-01-07 15:00:00 19.9 20 Norte 33 Norte 0 1020.5 -1.9 57
2020-01-07 14:00:00 20 22 Nordeste 32 Nordeste 0 1020.8 -1.9 56
2020-01-07 13:00:00 19.8 21 Nordeste 33 Nordeste 0 1021.5 -0.9 56
2020-01-07 12:00:00 19.5 24 Nordeste 32 Nordeste 0 1022.4 1 56
2020-01-07 11:00:00 19.5 22 Nordeste 32 Norte 0 1022.7 2.1 58
2020-01-07 10:00:00 18.8 23 Nordeste 32 Nordeste 0 1022.4 2.7 58
2020-01-07 09:00:00 17.9 22 Nordeste 35 Nordeste 0 1021.4 2.4 62
2020-01-07 08:00:00 17 21 Nordeste 32 Nordeste 0 1020.6 2.1 66
2020-01-07 07:00:00 16.7 23 Nordeste 33 Nordeste 0 1019.7 1 67
2020-01-07 06:00:00 17.2 24 Nordeste 33 Nordeste 0 1019 0.3 66
2020-01-07 05:00:00 16.9 22 Nordeste 30 Nordeste 0 1018.5 -0.6 65
2020-01-07 04:00:00 17.4 22 Norte 32 Norte 0 1018.7 -0.6 67
2020-01-07 03:00:00 16.5 12 Norte 24 Norte 0 1018.7 -1.2 76
2020-01-07 02:00:00 17 17 Norte 39 Norte 0 1019.1 -1.2 67
2020-01-07 01:00:00 17.7 22 Norte 32 Norte 0 1019.3 -1.1 66
2020-01-07 00:00:00 17.7 23 Norte 41 Norte 0 1019.9 0 67
2020-01-06 23:00:00 17.5 32 Norte 46 Norte 0 1020.3 1 69
2020-01-06 22:00:00 17.4 25 Norte 50 Norte 0 1020.4 1.4 68
2020-01-06 21:00:00 16.4 21 Norte 48 Norte 0.4 1019.9 1.2 84
2020-01-06 20:00:00 18.1 19 Norte 39 Norte 0 1019.3 0.9 62
2020-01-06 19:00:00 17.9 21 Norte 39 Norte 0 1019 0.7 65
2020-01-06 18:00:00 18.5 22 Norte 42 Norte 0 1018.7 0 60
2020-01-06 17:00:00 19.4 29 Norte 42 Norte 0 1018.4 -0.7 57
2020-01-06 16:00:00 19.6 28 Norte 48 Norte 0 1018.3 -1.7 58
2020-01-06 15:00:00 20.3 36 Norte 46 Norte 0 1018.7 -2.3 56
2020-01-06 14:00:00 20.6 26 Norte 46 Norte 0 1019.1 -2.9 54
2020-01-06 13:00:00 20.6 26 Norte 46 Norte 0 1020 -1.8 51
2020-01-06 12:00:00 20.6 27 Norte 45 Norte 0 1021 -0.2 49
2020-01-06 11:00:00 19.8 28 Norte 50 Norte 0 1022 1.1 50
2020-01-06 10:00:00 19.2 28 Norte 46 Norte 0 1021.8 0.8 56
2020-01-06 09:00:00 17.9 21 Norte 35 Norte 0 1021.2 0.6 56